Terminal Aerodrome Forecast
Issued by NWS

Home | Current Version | Previous Version | Text Only | Print | Product List | Glossary On
Versions: 1 2 3 4 5 6 7 8 9 10 11 12 13 14 15
000
FTUS45 KABQ 060537
TAFLVS
TAF
KLVS 060537Z 0606/0706 25008KT P6SM BKN080 BKN120
     FM060900 04008KT P6SM BKN100
     FM061200 01010KT P6SM BKN040
     FM061800 07008KT P6SM VCTS BKN050CB BKN100
     FM062200 04012KT P6SM VCTS OVC040CB
     FM070300 05007KT 5SM -RA BR OVC025=

USA.gov is the U.S. government's official web portal to all federal, state and local government web resources and services.